createdAt,value
2022-09-14T00:01:36.682Z,21.40
2022-09-14T00:04:07.658Z,21.40
2022-09-14T00:06:36.438Z,21.40
2022-09-14T00:09:07.307Z,21.40
2022-09-14T00:11:38.019Z,21.40
2022-09-14T00:14:07.879Z,21.40
2022-09-14T00:16:38.548Z,21.40
2022-09-14T00:19:08.920Z,21.40
2022-09-14T00:21:38.754Z,21.30
2022-09-14T00:24:08.854Z,21.40
2022-09-14T00:26:39.541Z,21.30
2022-09-14T00:29:08.082Z,21.30
2022-09-14T00:31:38.329Z,21.30
2022-09-14T00:34:08.530Z,21.30
2022-09-14T00:36:41.711Z,21.30
2022-09-14T00:39:10.495Z,21.30
2022-09-14T00:41:43.272Z,21.30
2022-09-14T00:44:44.918Z,21.30
2022-09-14T00:47:15.199Z,21.30
2022-09-14T00:49:44.746Z,21.30
2022-09-14T00:52:16.383Z,21.30
2022-09-14T00:54:47.481Z,21.30
2022-09-14T00:57:18.312Z,21.30
2022-09-14T00:59:49.202Z,21.30
2022-09-14T01:02:19.642Z,21.30
2022-09-14T01:04:49.029Z,21.30
2022-09-14T01:07:27.609Z,21.30
2022-09-14T01:10:02.867Z,21.30
2022-09-14T01:12:41.871Z,21.30
2022-09-14T01:15:18.792Z,21.30
2022-09-14T01:17:58.625Z,21.30
2022-09-14T01:20:31.335Z,21.30
2022-09-14T01:23:08.847Z,21.30
2022-09-14T01:26:14.411Z,21.20
2022-09-14T01:28:50.481Z,21.30
2022-09-14T01:31:22.475Z,21.30
2022-09-14T01:33:56.600Z,21.30
2022-09-14T01:36:27.036Z,21.30
2022-09-14T01:38:56.106Z,21.30
2022-09-14T01:41:29.731Z,21.30
2022-09-14T01:44:04.323Z,21.30
2022-09-14T01:46:39.504Z,21.30
2022-09-14T01:49:14.709Z,21.30
2022-09-14T01:51:48.713Z,21.30
2022-09-14T01:54:23.674Z,21.30
2022-09-14T01:56:56.829Z,21.30
2022-09-14T01:59:29.489Z,21.30
2022-09-14T02:02:02.276Z,21.30
2022-09-14T02:04:35.638Z,21.30
2022-09-14T02:07:05.108Z,21.30
2022-09-14T02:09:33.653Z,21.30
2022-09-14T02:12:02.181Z,21.30
2022-09-14T02:14:32.813Z,21.30
2022-09-14T02:17:01.164Z,21.30
2022-09-14T02:19:36.936Z,21.30
2022-09-14T02:22:05.517Z,21.30
2022-09-14T02:24:35.218Z,21.20
2022-09-14T02:27:04.540Z,21.20
2022-09-14T02:29:35.064Z,21.20
2022-09-14T02:32:13.294Z,21.20
2022-09-14T02:34:53.817Z,21.20
2022-09-14T02:37:29.394Z,21.20
2022-09-14T02:40:06.263Z,21.20
2022-09-14T02:42:40.325Z,21.20
2022-09-14T02:45:19.146Z,21.10
2022-09-14T02:47:56.719Z,21.20
2022-09-14T02:50:31.404Z,21.10
2022-09-14T02:53:06.013Z,21.10
2022-09-14T02:55:38.697Z,21.10
2022-09-14T02:58:09.167Z,21.00
2022-09-14T03:00:40.722Z,21.00
2022-09-14T03:03:11.314Z,21.00
2022-09-14T03:05:39.866Z,21.00
2022-09-14T03:08:09.102Z,21.00
2022-09-14T03:10:38.005Z,21.00
2022-09-14T03:13:06.272Z,21.00
2022-09-14T03:15:34.748Z,21.00
2022-09-14T03:18:04.637Z,21.00
2022-09-14T03:20:34.506Z,20.90
2022-09-14T03:23:03.780Z,21.00
2022-09-14T03:25:32.924Z,20.90
2022-09-14T03:28:01.878Z,21.00
2022-09-14T03:30:29.896Z,21.00
2022-09-14T03:32:59.995Z,21.00
2022-09-14T03:35:31.717Z,21.00
2022-09-14T03:38:01.319Z,21.00
2022-09-14T03:40:29.709Z,21.00
2022-09-14T03:42:58.186Z,21.00
2022-09-14T03:45:26.320Z,21.00
2022-09-14T03:47:54.868Z,21.00
2022-09-14T03:50:22.876Z,21.00
2022-09-14T03:52:52.724Z,20.90
2022-09-14T03:55:21.316Z,20.90
2022-09-14T03:57:49.367Z,20.90
2022-09-14T04:00:17.854Z,20.90
2022-09-14T04:02:46.333Z,20.80
2022-09-14T04:05:16.845Z,20.80
2022-09-14T04:07:46.746Z,20.70
2022-09-14T04:10:16.845Z,20.70
2022-09-14T04:12:44.920Z,20.70
2022-09-14T04:15:13.041Z,20.60
2022-09-14T04:17:41.086Z,20.60
2022-09-14T04:20:10.699Z,20.60
2022-09-14T04:22:38.714Z,20.50
2022-09-14T04:25:07.940Z,20.50
2022-09-14T04:27:37.333Z,20.50
2022-09-14T04:30:07.219Z,20.40
2022-09-14T04:32:35.250Z,20.40
2022-09-14T04:35:03.923Z,20.40
2022-09-14T04:37:33.509Z,20.40
2022-09-14T04:40:01.786Z,20.30
2022-09-14T04:42:31.469Z,20.30
2022-09-14T04:45:00.876Z,20.30
2022-09-14T04:47:30.044Z,20.30
2022-09-14T04:49:58.680Z,20.30
2022-09-14T04:52:26.733Z,20.30
2022-09-14T04:54:54.771Z,20.30
2022-09-14T04:57:23.213Z,20.30
2022-09-14T04:59:51.240Z,20.30
2022-09-14T05:02:21.201Z,20.20
2022-09-14T05:04:49.306Z,20.30
2022-09-14T05:07:17.786Z,20.30
2022-09-14T05:09:46.367Z,20.30
2022-09-14T05:12:14.464Z,20.20
2022-09-14T05:14:42.954Z,20.30
2022-09-14T05:17:11.239Z,20.20
2022-09-14T05:19:40.641Z,20.30
2022-09-14T05:22:09.117Z,20.20
2022-09-14T05:24:37.153Z,20.30
2022-09-14T05:27:05.442Z,20.20
2022-09-14T05:29:33.972Z,20.30
2022-09-14T05:32:02.473Z,20.30
2022-09-14T05:34:30.941Z,20.20
2022-09-14T05:37:00.794Z,20.20
2022-09-14T05:39:29.273Z,20.20
2022-09-14T05:41:57.772Z,20.20
2022-09-14T05:44:25.830Z,20.20
2022-09-14T05:46:54.314Z,20.20
2022-09-14T05:49:22.776Z,20.20
2022-09-14T05:51:51.243Z,20.20
2022-09-14T05:54:20.896Z,20.20
2022-09-14T05:56:49.349Z,20.20
2022-09-14T05:59:17.415Z,20.20
2022-09-14T06:01:45.980Z,20.20
2022-09-14T06:04:14.576Z,20.20
2022-09-14T06:06:49.315Z,20.20
2022-09-14T06:09:28.000Z,20.20
2022-09-14T06:11:58.344Z,20.20
2022-09-14T06:14:26.520Z,20.20
2022-09-14T06:16:54.597Z,20.20
2022-09-14T06:19:22.611Z,20.20
2022-09-14T06:21:50.931Z,20.10
2022-09-14T06:24:19.475Z,20.10
2022-09-14T06:26:49.053Z,20.20
2022-09-14T06:29:17.547Z,20.20
2022-09-14T06:31:45.647Z,20.10
2022-09-14T06:34:14.263Z,20.20
2022-09-14T06:36:42.301Z,20.10
2022-09-14T06:39:10.528Z,20.10
2022-09-14T06:41:39.013Z,20.10
2022-09-14T06:44:08.447Z,20.10
2022-09-14T06:46:37.440Z,20.10
2022-09-14T06:49:08.014Z,20.10
2022-09-14T06:51:38.214Z,20.10
2022-09-14T06:54:07.087Z,20.10
2022-09-14T06:56:38.379Z,20.10
2022-09-14T06:59:09.175Z,20.10
2022-09-14T07:01:37.946Z,20.10
2022-09-14T07:04:07.057Z,20.10
2022-09-14T07:06:43.804Z,20.10
2022-09-14T07:09:12.716Z,20.10
2022-09-14T07:11:41.875Z,20.10
2022-09-14T07:14:12.438Z,20.10
2022-09-14T07:16:42.459Z,20.10
2022-09-14T07:19:13.316Z,20.10
2022-09-14T07:21:41.730Z,20.10
2022-09-14T07:24:09.806Z,20.10
2022-09-14T07:26:42.285Z,20.10
2022-09-14T07:29:14.020Z,20.10
2022-09-14T07:31:44.569Z,20.10
2022-09-14T07:34:13.661Z,20.10
2022-09-14T07:36:42.670Z,20.10
2022-09-14T07:39:14.436Z,20.10
2022-09-14T07:41:43.457Z,20.10
2022-09-14T07:44:16.647Z,20.10
2022-09-14T07:46:46.697Z,20.20
2022-09-14T07:49:16.041Z,20.20
2022-09-14T07:51:44.461Z,20.20
2022-09-14T07:54:14.996Z,20.30
2022-09-14T07:56:43.568Z,19.90
2022-09-14T08:02:03.039Z,20.40
2022-09-14T08:04:31.548Z,20.40
2022-09-14T08:06:59.634Z,20.40
2022-09-14T08:09:28.269Z,20.40
2022-09-14T08:11:57.647Z,20.50
2022-09-14T08:14:27.245Z,20.50
2022-09-14T08:16:55.777Z,20.50
2022-09-14T08:19:23.867Z,20.50
2022-09-14T08:21:52.580Z,20.50
2022-09-14T08:24:22.700Z,20.50
2022-09-14T08:26:51.062Z,20.50
2022-09-14T08:29:20.805Z,20.60
2022-09-14T08:31:52.343Z,20.60
2022-09-14T08:34:21.220Z,20.60
2022-09-14T08:36:49.428Z,20.60
2022-09-14T08:39:19.131Z,20.70
2022-09-14T08:41:53.804Z,20.60
2022-09-14T08:44:27.444Z,20.70
2022-09-14T08:47:03.217Z,20.70
2022-09-14T08:49:48.224Z,20.70
2022-09-14T08:52:26.620Z,20.70
2022-09-14T08:54:57.447Z,20.80
2022-09-14T08:57:32.442Z,20.80
2022-09-14T09:00:08.714Z,20.80
2022-09-14T09:03:15.681Z,20.80
2022-09-14T09:05:50.393Z,20.80
2022-09-14T09:08:23.749Z,20.90
2022-09-14T09:10:55.170Z,20.90
2022-09-14T09:13:27.736Z,20.90
2022-09-14T09:15:59.657Z,20.90
2022-09-14T09:18:37.385Z,20.90
2022-09-14T09:21:11.503Z,20.90
2022-09-14T09:23:41.038Z,20.90
2022-09-14T09:26:17.658Z,20.90
2022-09-14T09:28:49.927Z,20.90
2022-09-14T09:31:20.781Z,21.00
2022-09-14T09:33:51.862Z,21.00
2022-09-14T09:36:20.577Z,21.00
2022-09-14T09:38:48.725Z,21.00
2022-09-14T09:41:22.398Z,21.00
2022-09-14T09:44:02.182Z,21.00
2022-09-14T09:46:33.215Z,21.10
2022-09-14T09:49:05.729Z,21.10
2022-09-14T09:51:36.219Z,21.10
2022-09-14T09:54:10.162Z,21.10
2022-09-14T09:56:42.043Z,21.10
2022-09-14T09:59:25.012Z,21.10
2022-09-14T10:01:56.012Z,21.10
2022-09-14T10:04:29.935Z,21.20
2022-09-14T10:06:59.230Z,21.20
2022-09-14T10:09:29.729Z,21.20
2022-09-14T10:12:00.960Z,21.20
2022-09-14T10:14:32.829Z,21.30
2022-09-14T10:17:09.292Z,21.30
2022-09-14T10:19:39.568Z,21.30
2022-09-14T10:22:26.290Z,21.40
2022-09-14T10:24:59.819Z,21.50
2022-09-14T10:27:40.022Z,21.50
2022-09-14T10:30:14.898Z,21.60
2022-09-14T10:32:46.935Z,21.60
2022-09-14T10:35:17.215Z,21.70
2022-09-14T10:38:02.097Z,21.70
2022-09-14T10:40:37.225Z,21.80
2022-09-14T10:43:15.073Z,21.80
2022-09-14T10:45:50.042Z,21.80
2022-09-14T10:49:03.962Z,21.90
2022-09-14T10:51:48.897Z,21.90
2022-09-14T10:54:37.370Z,21.90
2022-09-14T10:57:15.013Z,22.00
2022-09-14T10:59:53.379Z,22.00
2022-09-14T11:02:45.755Z,22.00
2022-09-14T11:05:21.040Z,22.00
2022-09-14T11:08:08.890Z,22.10
2022-09-14T11:10:47.221Z,22.10
2022-09-14T11:13:44.759Z,22.10
2022-09-14T11:16:37.049Z,22.10
2022-09-14T11:19:18.619Z,22.20
2022-09-14T11:21:53.862Z,22.20
2022-09-14T11:24:29.444Z,22.20
2022-09-14T11:27:03.240Z,22.30
2022-09-14T11:29:35.359Z,22.30
2022-09-14T11:32:20.787Z,22.30
2022-09-14T11:34:55.313Z,22.30
2022-09-14T11:37:32.256Z,22.40
2022-09-14T11:40:08.512Z,22.40
2022-09-14T11:42:45.235Z,22.40
2022-09-14T11:45:20.016Z,22.50
2022-09-14T11:47:55.588Z,22.50
2022-09-14T11:50:27.537Z,22.60
2022-09-14T11:53:05.099Z,22.70
2022-09-14T11:55:35.154Z,22.80
2022-09-14T11:58:08.605Z,22.90
2022-09-14T12:01:06.149Z,22.90
2022-09-14T12:04:03.599Z,22.90
2022-09-14T12:06:51.444Z,23.00
2022-09-14T12:09:55.124Z,23.10
2022-09-14T12:12:33.990Z,23.10
2022-09-14T12:15:05.438Z,23.10
2022-09-14T12:17:40.168Z,23.10
2022-09-14T12:20:30.577Z,23.20
2022-09-14T12:23:28.234Z,23.20
2022-09-14T12:26:28.339Z,23.20
2022-09-14T12:29:02.840Z,23.20
2022-09-14T12:31:38.829Z,23.30
2022-09-14T12:34:25.120Z,23.30
2022-09-14T12:37:32.223Z,23.30
2022-09-14T12:40:34.790Z,23.40
2022-09-14T12:43:46.237Z,23.60
2022-09-14T12:46:38.836Z,23.70
2022-09-14T12:49:37.230Z,23.90
2022-09-14T12:52:28.129Z,24.10
2022-09-14T12:55:08.001Z,24.20
2022-09-14T12:57:43.086Z,24.40
2022-09-14T13:00:15.349Z,24.50
2022-09-14T13:03:17.757Z,24.60
2022-09-14T13:05:47.333Z,24.70
2022-09-14T13:08:22.009Z,24.70
2022-09-14T13:10:52.307Z,24.70
2022-09-14T13:13:23.736Z,24.70
2022-09-14T13:15:55.302Z,24.70
2022-09-14T13:18:36.470Z,24.70
2022-09-14T13:21:24.339Z,24.60
2022-09-14T13:23:52.924Z,24.60
2022-09-14T13:26:23.485Z,24.60
2022-09-14T13:28:54.077Z,24.60
2022-09-14T13:31:30.078Z,24.50
2022-09-14T13:34:01.000Z,24.50
2022-09-14T13:36:32.257Z,24.50
2022-09-14T13:39:02.551Z,24.50
2022-09-14T13:41:32.695Z,24.40
2022-09-14T13:44:01.856Z,24.40
2022-09-14T13:46:30.226Z,24.40
2022-09-14T13:49:00.423Z,24.30
2022-09-14T13:51:31.465Z,24.30
2022-09-14T13:54:17.089Z,24.30
2022-09-14T13:56:45.545Z,24.30
2022-09-14T13:59:19.810Z,24.30
2022-09-14T14:02:00.286Z,24.30
2022-09-14T14:04:35.422Z,24.30
2022-09-14T14:07:08.804Z,24.30
2022-09-14T14:09:43.703Z,24.30
2022-09-14T14:12:14.608Z,24.30
2022-09-14T14:14:43.128Z,24.20
2022-09-14T14:17:42.834Z,24.20
2022-09-14T14:20:32.589Z,24.20
2022-09-14T14:23:05.080Z,24.10
2022-09-14T14:25:42.055Z,24.10
2022-09-14T14:28:18.343Z,24.00
2022-09-14T14:30:46.806Z,24.00
2022-09-14T14:33:19.142Z,23.90
2022-09-14T14:35:49.420Z,23.80
2022-09-14T14:38:19.616Z,23.70
2022-09-14T14:40:49.323Z,23.50
2022-09-14T14:43:20.687Z,23.40
2022-09-14T14:45:49.834Z,23.40
2022-09-14T14:48:18.805Z,23.20
2022-09-14T14:50:49.121Z,23.10
2022-09-14T14:53:17.267Z,23.00
2022-09-14T14:55:45.768Z,22.90
2022-09-14T14:58:17.632Z,22.90
2022-09-14T15:00:47.769Z,22.80
2022-09-14T15:03:16.507Z,22.80
2022-09-14T15:05:46.634Z,22.70
2022-09-14T15:08:19.861Z,22.60
2022-09-14T15:10:49.842Z,22.60
2022-09-14T15:13:18.087Z,22.60
2022-09-14T15:15:46.214Z,22.50
2022-09-14T15:18:14.740Z,22.50
2022-09-14T15:20:42.794Z,22.40
2022-09-14T15:23:14.762Z,22.40
2022-09-14T15:25:44.214Z,22.30
2022-09-14T15:28:12.708Z,22.30
2022-09-14T15:30:41.750Z,22.20
2022-09-14T15:33:09.878Z,22.20
2022-09-14T15:35:39.051Z,22.10
2022-09-14T15:38:07.605Z,22.10
2022-09-14T15:40:35.730Z,22.00
2022-09-14T15:43:05.637Z,22.00
2022-09-14T15:45:34.227Z,22.00
2022-09-14T15:48:03.183Z,22.00
2022-09-14T15:50:31.220Z,22.00
2022-09-14T15:53:02.525Z,22.00
2022-09-14T15:55:30.963Z,22.00
2022-09-14T15:57:59.092Z,22.00
2022-09-14T16:00:28.495Z,22.00
2022-09-14T16:02:56.549Z,22.00
2022-09-14T16:05:25.086Z,22.00
2022-09-14T16:07:54.686Z,22.00
2022-09-14T16:10:23.040Z,21.90
2022-09-14T16:12:51.643Z,21.90
2022-09-14T16:15:19.694Z,21.90
2022-09-14T16:17:53.102Z,21.80
2022-09-14T16:20:22.044Z,21.80
2022-09-14T16:22:51.391Z,21.80
2022-09-14T16:25:19.784Z,21.80
2022-09-14T16:27:49.350Z,21.80
2022-09-14T16:30:17.480Z,21.80
2022-09-14T16:32:45.767Z,21.80
2022-09-14T16:35:15.491Z,21.70
2022-09-14T16:37:43.958Z,21.70
2022-09-14T16:40:13.941Z,21.70
2022-09-14T16:42:42.514Z,21.70
2022-09-14T16:45:11.512Z,21.70
2022-09-14T16:47:40.217Z,20.30
2022-09-14T16:50:08.541Z,21.70
2022-09-14T16:52:37.968Z,21.70
2022-09-14T16:55:07.557Z,21.60
2022-09-14T16:57:35.584Z,21.60
2022-09-14T17:00:04.813Z,21.60
2022-09-14T17:02:33.381Z,21.60
2022-09-14T17:05:04.336Z,21.60
2022-09-14T17:07:32.433Z,21.60
2022-09-14T17:10:01.974Z,21.60
2022-09-14T17:12:30.428Z,21.60
2022-09-14T17:14:59.415Z,21.60
2022-09-14T17:17:27.462Z,21.60
2022-09-14T17:19:55.654Z,21.60
2022-09-14T17:22:24.007Z,21.60
2022-09-14T17:24:52.105Z,21.50
2022-09-14T17:27:22.410Z,21.50
2022-09-14T17:29:50.892Z,21.50
2022-09-14T17:32:19.386Z,21.50
2022-09-14T17:34:47.402Z,21.50
2022-09-14T17:37:15.632Z,21.50
2022-09-14T17:39:44.224Z,21.50
2022-09-14T17:42:12.411Z,21.50
2022-09-14T17:44:41.915Z,21.50
2022-09-14T17:47:10.456Z,21.50
2022-09-14T17:49:38.621Z,21.50
2022-09-14T17:52:07.294Z,21.50
2022-09-14T17:54:35.450Z,21.50
2022-09-14T17:57:03.977Z,21.40
2022-09-14T17:59:32.006Z,21.40
2022-09-14T18:02:01.975Z,21.40
2022-09-14T18:04:30.054Z,19.70
2022-09-14T18:06:58.483Z,21.40
2022-09-14T18:09:26.617Z,21.40
2022-09-14T18:11:57.125Z,21.40
2022-09-14T18:14:25.794Z,21.40
2022-09-14T18:16:53.895Z,21.40
2022-09-14T18:19:24.022Z,21.40
2022-09-14T18:21:53.022Z,21.40
2022-09-14T18:24:22.224Z,21.40
2022-09-14T18:26:50.396Z,21.40
2022-09-14T18:29:21.583Z,21.40
2022-09-14T18:31:49.775Z,21.40
2022-09-14T18:34:18.489Z,21.40
2022-09-14T18:36:48.127Z,21.30
2022-09-14T18:39:16.795Z,21.30
2022-09-14T18:41:45.118Z,21.30
2022-09-14T18:44:13.176Z,21.30
2022-09-14T18:46:41.723Z,21.30
2022-09-14T18:49:10.593Z,21.30
2022-09-14T18:51:39.105Z,21.30
2022-09-14T18:54:09.626Z,21.30
2022-09-14T18:56:38.341Z,21.30
2022-09-14T18:59:08.905Z,21.30
2022-09-14T19:01:37.982Z,21.30
2022-09-14T19:04:08.566Z,21.30
2022-09-14T19:06:38.039Z,21.30
2022-09-14T19:09:09.305Z,21.20
2022-09-14T19:11:37.555Z,21.20
2022-09-14T19:14:10.593Z,21.20
2022-09-14T19:16:40.981Z,21.20
2022-09-14T19:19:11.786Z,21.20
2022-09-14T19:21:40.368Z,21.20
2022-09-14T19:24:14.190Z,21.20
2022-09-14T19:26:45.565Z,21.10
2022-09-14T19:29:14.869Z,21.10
2022-09-14T19:31:43.516Z,21.10
2022-09-14T19:34:12.660Z,21.10
2022-09-14T19:36:41.189Z,21.10
2022-09-14T19:39:10.771Z,21.10
2022-09-14T19:41:40.438Z,21.10
2022-09-14T19:44:09.365Z,21.10
2022-09-14T19:46:40.167Z,21.00
2022-09-14T19:49:09.176Z,21.00
2022-09-14T19:51:37.230Z,21.00
2022-09-14T19:54:06.067Z,21.00
2022-09-14T19:56:35.972Z,21.00
2022-09-14T19:59:06.204Z,21.00
2022-09-14T20:01:37.423Z,21.00
2022-09-14T20:04:08.591Z,21.00
2022-09-14T20:06:40.251Z,21.00
2022-09-14T20:09:10.262Z,21.00
2022-09-14T20:11:42.199Z,21.00
2022-09-14T20:14:14.900Z,21.00
2022-09-14T20:16:45.335Z,21.00
2022-09-14T20:19:15.142Z,20.90
2022-09-14T20:21:43.946Z,20.90
2022-09-14T20:24:16.539Z,20.90
2022-09-14T20:26:47.328Z,20.90
2022-09-14T20:29:16.349Z,20.90
2022-09-14T20:31:45.474Z,20.90
2022-09-14T20:34:15.671Z,20.90
2022-09-14T20:36:45.699Z,20.90
2022-09-14T20:39:14.289Z,20.90
2022-09-14T20:41:42.673Z,20.80
2022-09-14T20:44:13.787Z,20.90
2022-09-14T20:46:43.543Z,20.80
2022-09-14T20:49:14.184Z,20.80
2022-09-14T20:51:42.935Z,20.80
2022-09-14T20:54:13.415Z,20.80
2022-09-14T20:56:42.020Z,20.80
2022-09-14T20:59:13.125Z,20.70
2022-09-14T21:01:42.986Z,20.80
2022-09-14T21:04:13.783Z,20.70
2022-09-14T21:06:44.361Z,20.70
2022-09-14T21:09:13.865Z,20.80
2022-09-14T21:11:42.145Z,20.70
2022-09-14T21:14:11.588Z,20.80
2022-09-14T21:16:43.002Z,20.80
2022-09-14T21:19:13.688Z,20.70
2022-09-14T21:21:42.101Z,20.70
2022-09-14T21:24:13.826Z,20.70
2022-09-14T21:26:43.074Z,20.80
2022-09-14T21:29:16.163Z,20.80
2022-09-14T21:31:45.612Z,20.80
2022-09-14T21:34:14.798Z,20.70
2022-09-14T21:36:44.275Z,20.70
2022-09-14T21:39:14.972Z,20.70
2022-09-14T21:41:44.665Z,20.70
2022-09-14T21:44:14.788Z,20.70
2022-09-14T21:46:43.769Z,20.70
2022-09-14T21:49:15.104Z,20.60
2022-09-14T21:51:44.793Z,20.60
2022-09-14T21:54:14.095Z,20.60
2022-09-14T21:56:44.726Z,20.60
2022-09-14T21:59:15.676Z,20.60
2022-09-14T22:01:44.053Z,20.60
2022-09-14T22:04:15.212Z,20.60
2022-09-14T22:06:45.179Z,20.50
2022-09-14T22:09:14.536Z,20.50
2022-09-14T22:11:42.829Z,20.50
2022-09-14T22:14:15.561Z,20.50
2022-09-14T22:16:43.941Z,20.50
2022-09-14T22:19:16.883Z,20.50
2022-09-14T22:21:45.900Z,20.50
2022-09-14T22:24:17.329Z,20.50
2022-09-14T22:26:46.847Z,20.50
2022-09-14T22:29:17.640Z,20.50
2022-09-14T22:31:47.477Z,20.50
2022-09-14T22:34:17.094Z,20.50
2022-09-14T22:36:45.291Z,20.50
2022-09-14T22:39:14.450Z,20.50
2022-09-14T22:41:43.290Z,20.60
2022-09-14T22:44:13.065Z,20.50
2022-09-14T22:46:43.657Z,20.50
2022-09-14T22:49:11.873Z,20.60
2022-09-14T22:51:40.493Z,20.50
2022-09-14T22:54:09.387Z,19.60
2022-09-14T22:56:39.346Z,20.60
2022-09-14T22:59:09.543Z,20.60
2022-09-14T23:01:39.947Z,20.50
2022-09-14T23:04:12.196Z,20.50
2022-09-14T23:06:42.500Z,20.60
2022-09-14T23:09:14.689Z,20.60
2022-09-14T23:11:44.973Z,20.60
2022-09-14T23:14:13.751Z,20.60
2022-09-14T23:16:45.533Z,20.60
2022-09-14T23:19:17.330Z,20.60
2022-09-14T23:21:46.155Z,20.60
2022-09-14T23:24:14.871Z,20.70
2022-09-14T23:26:43.938Z,20.60
2022-09-14T23:29:16.392Z,20.60
2022-09-14T23:31:45.254Z,20.70
2022-09-14T23:34:15.156Z,20.70
2022-09-14T23:36:43.279Z,20.60
2022-09-14T23:39:11.360Z,20.70
2022-09-14T23:41:40.853Z,21.70
2022-09-14T23:44:09.782Z,20.60
2022-09-14T23:46:38.293Z,20.70
2022-09-14T23:49:07.025Z,20.70
2022-09-14T23:51:37.886Z,20.60
2022-09-14T23:54:07.034Z,20.60
2022-09-14T23:56:35.147Z,20.60
2022-09-14T23:59:03.237Z,20.70
